Watertown, WI

12:19 PM CDT on September 20, 2014 (GMT -0500)
Hunter Oaks Subdivision | Change Station
CLOSE
Current Station
Personal Weather Station
Location: Watertown, WI
Elevation: 840 ft
Nearby Weather Stations

Elev 840 ft 43.18 °N, 88.76 °W | Updated 5 seconds ago

Scattered Clouds
Scattered Clouds
76.6 °F
Feels Like 78 °F
N
8.3
Wind Variable Wind from NNW
Gusts 10.7 mph

Today
High -- | Low -- °F
--% Chance of Precip.
Yesterday
High -- | Low -- °F
Precip. -- in
6:39 AM 6:55 PM
Waning Crescent, 11% visible
Pressure 29.77 in
Visibility 10.0 miles
Clouds Scattered Clouds 2500 ft
Scattered Clouds 3300 ft
Heat Index 78 °F
Dew Point 67 °F
Humidity 72%
Rainfall 0.00 in
Snow Depth Not available.
UV 5 out of 12
Pollen .60 out of 12
Air Quality Not available.
Flu Activity Not available.
METAR KRYV 201635Z AUTO 22016G19KT 10SM SCT025 SCT033 23/18 A2977 RMK AO2 T02300178

More Conditions Fewer Conditions

Pressure 29.77 in
Visibility 10.0 miles
Clouds Scattered Clouds 2500 ft
Scattered Clouds 3300 ft
Heat Index 78 °F
Dew Point 67 °F
Humidity 72%
Rainfall 0.00 in
Snow Depth Not available.
UV 5 out of 12
Pollen .60 out of 12
Air Quality Not available.
Flu Activity Not available.
METAR KRYV 201635Z AUTO 22016G19KT 10SM SCT025 SCT033 23/18 A2977 RMK AO2 T02300178

More Conditions Fewer Conditions

10-Day Weather Forecast

Almanac

Astronomy

Sep. 20, 2014 Rise Set
Actual Time 6:39 AM CDT 6:55 PM CDT
Civil Twilight 6:11 AM CDT 7:24 PM CDT
Nautical Twilight 5:38 AM CDT 7:57 PM CDT
Astronomical Twilight 5:03 AM CDT 8:31 PM CDT
Moon 3:14 AM CDT 5:02 PM CDT
Length of Visible Light 13h 12m
Length of Day
12h 15m
Tomorrow will be 2m 55s shorter.
Waning Crescent, 11% of the Moon is Illuminated
Today
Waning Crescent
Sep 24
New
Oct 1
First Quarter
Oct 8
Full
Oct 15
Last Quarter

Today's Extremes

State Highs State Lows

Community

WunderPhotos

Upload Photos

1,754,906 photos uploaded!

Nearby

Snow Depth

Station Depth Elevation
No new snow has been reported.

Earthquake Activity

City Distance Mag. Time & Date
No recent earthquake activity has been reported nearby.
Minimum magnitude displayed is 2.5.

Coastal Water Temperatures

Place Temperature
No Stations Reporting

Nearby Weather Stations